Allison, TX

3:59 AM CDT on July 25, 2014 (GMT -0500)
Hemphill County (KHHF) Elev 2395 ft | 35.89 °N, 100.40 °W | Change Station

Current weather conditions updated 24 minutes ago

Clear
Clear
79 °F
Feels Like 79 °F
N
16
Wind Variable Wind from SSW
Gusts 21 mph

Today is forecast to be nearly the same temperature as yesterday.

Today
High -- | Low -- °F
--% Chance of Precip.
Yesterday
High -- | Low -- °F
Precip. -- in
6:43 AM 8:50 PM
Waning Crescent, 2% visible
Pressure 29.98 in
Visibility 10.0 miles
Clouds Clear
Dew Point 67 °F
Humidity 67%
Rainfall 0.00 in
Snow Depth Not available.
UV 0 out of 12
Pollen 5.10 out of 12
Air Quality Not available.
Flu Activity Not available.
METAR KHHF 250835Z AUTO 20014G18KT 10SM CLR 26/19 A2998 RMK AO2 T02590193

More Conditions Fewer Conditions

Pressure 29.98 in
Visibility 10.0 miles
Clouds Clear
Dew Point 67 °F
Humidity 67%
Rainfall 0.00 in
Snow Depth Not available.
UV 0 out of 12
Pollen 5.10 out of 12
Air Quality Not available.
Flu Activity Not available.
METAR KHHF 250835Z AUTO 20014G18KT 10SM CLR 26/19 A2998 RMK AO2 T02590193

More Conditions Fewer Conditions

10-Day Weather Forecast

Almanac

Astronomy

Jul. 25, 2014 Rise Set
Actual Time 6:43 AM CDT 8:50 PM CDT
Civil Twilight 6:15 AM CDT 9:18 PM CDT
Nautical Twilight 5:40 AM CDT 9:53 PM CDT
Astronomical Twilight 5:02 AM CDT 10:30 PM CDT
Moon 5:43 AM CDT 7:50 PM CDT
Length of Visible Light 15h 03m
Length of Day
14h 06m
Tomorrow will be 1m 29s shorter.
Waning Crescent, 2% of the Moon is Illuminated
Today
Waning Crescent
Jul 26
New
Aug 3
First Quarter
Aug 10
Full
Aug 17
Last Quarter

Today's Extremes

State Highs State Lows

Community

WunderPhotos

Upload Photos

1,737,276 photos uploaded!

Nearby

Snow Depth

Station Depth Elevation
No new snow has been reported.

Earthquake Activity

City Distance Mag. Time & Date
No recent earthquake activity has been reported nearby.
Minimum magnitude displayed is 2.5.

Coastal Water Temperatures

Place Temperature
No Stations Reporting

Nearby Weather Stations

Station Location Temp. Heat Index Dew Point Humidity Wind Precip. Elev Updated Type
RAWS WHEELER RAWS TX, Wheeler, TX 76 °F 77 °F 67 °F 73% South  at  13 mph 0.00 in / hr 2375 ft 2:38 AM CDT MADIS
RAWS CHEYENNE OK, Reydon, OK 77 °F 79 °F 67 °F 71% SSE  at  13 mph 0.00 in / hr 2352 ft 2:58 AM CDT MADIS

Show More Stations Show Fewer Stations